sensor_id;sensor_type;location;lat;lon;timestamp;P1;durP1;ratioP1;P2;durP2;ratioP2
45909;SDS011;31622;55.416;37.840;2023-07-24T00:00:57;3.72;;;2.67;;
45909;SDS011;31622;55.416;37.840;2023-07-24T00:03:23;4.57;;;2.97;;
45909;SDS011;31622;55.416;37.840;2023-07-24T00:05:48;3.28;;;2.50;;
45909;SDS011;31622;55.416;37.840;2023-07-24T00:08:14;3.63;;;2.28;;
45909;SDS011;31622;55.416;37.840;2023-07-24T00:10:40;3.35;;;2.65;;
45909;SDS011;31622;55.416;37.840;2023-07-24T00:13:07;4.55;;;2.97;;
45909;SDS011;31622;55.416;37.840;2023-07-24T00:15:32;3.88;;;2.35;;
45909;SDS011;31622;55.416;37.840;2023-07-24T00:17:58;4.93;;;2.70;;
45909;SDS011;31622;55.416;37.840;2023-07-24T00:20:24;3.22;;;2.30;;
45909;SDS011;31622;55.416;37.840;2023-07-24T00:22:50;3.70;;;2.40;;
45909;SDS011;31622;55.416;37.840;2023-07-24T00:25:16;3.53;;;2.58;;
45909;SDS011;31622;55.416;37.840;2023-07-24T00:27:42;4.68;;;2.60;;
45909;SDS011;31622;55.416;37.840;2023-07-24T00:30:07;2.90;;;2.40;;
45909;SDS011;31622;55.416;37.840;2023-07-24T00:32:34;3.63;;;2.60;;
45909;SDS011;31622;55.416;37.840;2023-07-24T00:35:01;3.85;;;2.70;;
45909;SDS011;31622;55.416;37.840;2023-07-24T00:37:26;4.90;;;2.50;;
45909;SDS011;31622;55.416;37.840;2023-07-24T00:39:52;3.55;;;2.42;;
45909;SDS011;31622;55.416;37.840;2023-07-24T00:42:18;4.40;;;2.30;;
45909;SDS011;31622;55.416;37.840;2023-07-24T00:44:47;3.47;;;2.42;;
45909;SDS011;31622;55.416;37.840;2023-07-24T00:47:12;4.82;;;2.20;;
45909;SDS011;31622;55.416;37.840;2023-07-24T00:49:38;6.30;;;2.40;;
45909;SDS011;31622;55.416;37.840;2023-07-24T00:52:04;6.30;;;2.70;;
45909;SDS011;31622;55.416;37.840;2023-07-24T00:54:30;2.97;;;2.20;;
45909;SDS011;31622;55.416;37.840;2023-07-24T00:56:58;3.38;;;2.25;;
45909;SDS011;31622;55.416;37.840;2023-07-24T00:59:23;3.47;;;2.20;;
45909;SDS011;31622;55.416;37.840;2023-07-24T01:01:49;3.85;;;2.30;;
45909;SDS011;31622;55.416;37.840;2023-07-24T01:04:15;3.10;;;1.88;;
45909;SDS011;31622;55.416;37.840;2023-07-24T01:06:41;4.15;;;2.20;;
45909;SDS011;31622;55.416;37.840;2023-07-24T01:09:06;4.15;;;2.35;;
45909;SDS011;31622;55.416;37.840;2023-07-24T01:11:41;3.17;;;2.20;;
45909;SDS011;31622;55.416;37.840;2023-07-24T01:15:06;2.75;;;1.85;;
45909;SDS011;31622;55.416;37.840;2023-07-24T01:17:16;2.78;;;2.05;;
45909;SDS011;31622;55.416;37.840;2023-07-24T01:20:18;4.15;;;2.20;;
45909;SDS011;31622;55.416;37.840;2023-07-24T01:23:13;3.47;;;1.95;;
45909;SDS011;31622;55.416;37.840;2023-07-24T01:25:35;2.20;;;1.77;;
45909;SDS011;31622;55.416;37.840;2023-07-24T01:28:06;4.72;;;1.77;;
45909;SDS011;31622;55.416;37.840;2023-07-24T01:30:32;2.50;;;1.80;;
45909;SDS011;31622;55.416;37.840;2023-07-24T01:32:58;4.28;;;2.00;;
45909;SDS011;31622;55.416;37.840;2023-07-24T01:35:24;3.40;;;2.20;;
45909;SDS011;31622;55.416;37.840;2023-07-24T01:37:50;3.55;;;2.03;;
45909;SDS011;31622;55.416;37.840;2023-07-24T01:40:17;4.97;;;2.13;;
45909;SDS011;31622;55.416;37.840;2023-07-24T01:42:43;4.65;;;2.40;;
45909;SDS011;31622;55.416;37.840;2023-07-24T01:45:08;3.53;;;2.10;;
45909;SDS011;31622;55.416;37.840;2023-07-24T01:47:34;5.82;;;1.80;;
45909;SDS011;31622;55.416;37.840;2023-07-24T01:50:00;2.63;;;1.88;;
45909;SDS011;31622;55.416;37.840;2023-07-24T01:52:26;4.13;;;1.98;;
45909;SDS011;31622;55.416;37.840;2023-07-24T01:54:52;3.28;;;2.13;;
45909;SDS011;31622;55.416;37.840;2023-07-24T01:57:17;2.00;;;1.50;;
45909;SDS011;31622;55.416;37.840;2023-07-24T01:59:43;3.97;;;2.00;;
45909;SDS011;31622;55.416;37.840;2023-07-24T02:02:10;4.07;;;1.88;;
45909;SDS011;31622;55.416;37.840;2023-07-24T02:04:35;2.38;;;1.75;;
45909;SDS011;31622;55.416;37.840;2023-07-24T02:07:02;3.92;;;2.00;;
45909;SDS011;31622;55.416;37.840;2023-07-24T02:09:28;2.72;;;2.15;;
45909;SDS011;31622;55.416;37.840;2023-07-24T02:11:54;3.13;;;1.80;;
45909;SDS011;31622;55.416;37.840;2023-07-24T02:14:20;2.72;;;2.00;;
45909;SDS011;31622;55.416;37.840;2023-07-24T02:16:46;3.85;;;1.95;;
45909;SDS011;31622;55.416;37.840;2023-07-24T02:19:12;2.63;;;1.90;;
45909;SDS011;31622;55.416;37.840;2023-07-24T02:21:37;4.50;;;1.98;;
45909;SDS011;31622;55.416;37.840;2023-07-24T02:24:03;3.13;;;1.70;;
45909;SDS011;31622;55.416;37.840;2023-07-24T02:26:30;3.67;;;2.00;;
45909;SDS011;31622;55.416;37.840;2023-07-24T02:28:56;4.05;;;2.00;;
45909;SDS011;31622;55.416;37.840;2023-07-24T02:31:21;7.40;;;2.10;;
45909;SDS011;31622;55.416;37.840;2023-07-24T02:33:48;5.88;;;2.10;;
45909;SDS011;31622;55.416;37.840;2023-07-24T02:36:14;2.55;;;1.80;;
45909;SDS011;31622;55.416;37.840;2023-07-24T02:38:40;4.18;;;1.90;;
45909;SDS011;31622;55.416;37.840;2023-07-24T02:41:06;3.00;;;1.90;;
45909;SDS011;31622;55.416;37.840;2023-07-24T02:43:32;2.92;;;1.90;;
45909;SDS011;31622;55.416;37.840;2023-07-24T02:46:01;3.25;;;1.70;;
45909;SDS011;31622;55.416;37.840;2023-07-24T02:48:27;3.70;;;2.08;;
45909;SDS011;31622;55.416;37.840;2023-07-24T02:50:53;3.05;;;1.80;;
45909;SDS011;31622;55.416;37.840;2023-07-24T02:53:19;4.57;;;1.55;;
45909;SDS011;31622;55.416;37.840;2023-07-24T02:55:45;2.38;;;1.40;;
45909;SDS011;31622;55.416;37.840;2023-07-24T02:58:12;3.00;;;1.80;;
45909;SDS011;31622;55.416;37.840;2023-07-24T03:00:39;2.40;;;2.00;;
45909;SDS011;31622;55.416;37.840;2023-07-24T03:03:04;4.35;;;1.90;;
45909;SDS011;31622;55.416;37.840;2023-07-24T03:05:30;2.83;;;1.90;;
45909;SDS011;31622;55.416;37.840;2023-07-24T03:07:56;2.40;;;1.58;;
45909;SDS011;31622;55.416;37.840;2023-07-24T03:10:22;3.25;;;2.00;;
45909;SDS011;31622;55.416;37.840;2023-07-24T03:12:48;4.38;;;1.92;;
45909;SDS011;31622;55.416;37.840;2023-07-24T03:15:14;2.55;;;1.90;;
45909;SDS011;31622;55.416;37.840;2023-07-24T03:17:40;3.80;;;1.80;;
45909;SDS011;31622;55.416;37.840;2023-07-24T03:20:24;2.40;;;1.50;;
45909;SDS011;31622;55.416;37.840;2023-07-24T03:22:50;6.57;;;2.00;;
45909;SDS011;31622;55.416;37.840;2023-07-24T03:25:15;2.95;;;1.73;;
45909;SDS011;31622;55.416;37.840;2023-07-24T03:27:41;2.40;;;1.55;;
45909;SDS011;31622;55.416;37.840;2023-07-24T03:30:07;4.38;;;1.75;;
45909;SDS011;31622;55.416;37.840;2023-07-24T03:32:33;5.38;;;1.77;;
45909;SDS011;31622;55.416;37.840;2023-07-24T03:34:58;3.08;;;1.50;;
45909;SDS011;31622;55.416;37.840;2023-07-24T03:37:24;3.55;;;2.05;;
45909;SDS011;31622;55.416;37.840;2023-07-24T03:39:50;2.60;;;1.50;;
45909;SDS011;31622;55.416;37.840;2023-07-24T03:42:26;4.72;;;2.10;;
45909;SDS011;31622;55.416;37.840;2023-07-24T03:44:53;3.53;;;1.80;;
45909;SDS011;31622;55.416;37.840;2023-07-24T03:47:19;4.55;;;1.85;;
45909;SDS011;31622;55.416;37.840;2023-07-24T03:49:45;2.70;;;1.75;;
45909;SDS011;31622;55.416;37.840;2023-07-24T03:52:11;2.38;;;1.85;;
45909;SDS011;31622;55.416;37.840;2023-07-24T03:54:37;2.92;;;1.60;;
45909;SDS011;31622;55.416;37.840;2023-07-24T03:57:03;2.85;;;1.60;;
45909;SDS011;31622;55.416;37.840;2023-07-24T03:59:29;3.53;;;1.50;;
45909;SDS011;31622;55.416;37.840;2023-07-24T04:01:55;2.47;;;1.42;;
45909;SDS011;31622;55.416;37.840;2023-07-24T04:04:21;3.95;;;1.85;;
45909;SDS011;31622;55.416;37.840;2023-07-24T04:06:47;3.42;;;2.00;;
45909;SDS011;31622;55.416;37.840;2023-07-24T04:09:13;5.95;;;2.17;;
45909;SDS011;31622;55.416;37.840;2023-07-24T04:11:43;6.35;;;2.67;;
45909;SDS011;31622;55.416;37.840;2023-07-24T04:14:09;2.50;;;1.70;;
45909;SDS011;31622;55.416;37.840;2023-07-24T04:16:35;3.85;;;1.95;;
45909;SDS011;31622;55.416;37.840;2023-07-24T04:19:01;3.00;;;1.80;;
45909;SDS011;31622;55.416;37.840;2023-07-24T04:21:27;3.70;;;1.70;;
45909;SDS011;31622;55.416;37.840;2023-07-24T04:23:53;2.53;;;1.77;;
45909;SDS011;31622;55.416;37.840;2023-07-24T04:26:19;3.95;;;1.70;;
45909;SDS011;31622;55.416;37.840;2023-07-24T04:28:45;3.50;;;1.80;;
45909;SDS011;31622;55.416;37.840;2023-07-24T04:31:11;3.05;;;1.80;;
45909;SDS011;31622;55.416;37.840;2023-07-24T04:33:36;3.92;;;1.70;;
45909;SDS011;31622;55.416;37.840;2023-07-24T04:36:02;3.08;;;1.60;;
45909;SDS011;31622;55.416;37.840;2023-07-24T04:38:28;3.40;;;1.73;;
45909;SDS011;31622;55.416;37.840;2023-07-24T04:40:54;3.58;;;1.80;;
45909;SDS011;31622;55.416;37.840;2023-07-24T04:43:19;2.42;;;1.45;;
45909;SDS011;31622;55.416;37.840;2023-07-24T04:45:45;2.55;;;1.50;;
45909;SDS011;31622;55.416;37.840;2023-07-24T04:48:11;3.40;;;1.60;;
45909;SDS011;31622;55.416;37.840;2023-07-24T04:50:36;2.88;;;1.60;;
45909;SDS011;31622;55.416;37.840;2023-07-24T04:53:02;2.10;;;1.70;;
45909;SDS011;31622;55.416;37.840;2023-07-24T04:55:28;5.10;;;1.92;;
45909;SDS011;31622;55.416;37.840;2023-07-24T04:57:53;3.90;;;1.80;;
45909;SDS011;31622;55.416;37.840;2023-07-24T05:00:19;3.28;;;2.00;;
45909;SDS011;31622;55.416;37.840;2023-07-24T05:02:45;3.55;;;2.00;;
45909;SDS011;31622;55.416;37.840;2023-07-24T05:05:10;3.45;;;1.90;;
45909;SDS011;31622;55.416;37.840;2023-07-24T05:07:36;2.95;;;1.77;;
45909;SDS011;31622;55.416;37.840;2023-07-24T05:10:02;4.68;;;1.98;;
45909;SDS011;31622;55.416;37.840;2023-07-24T05:12:27;7.32;;;2.65;;
45909;SDS011;31622;55.416;37.840;2023-07-24T05:14:53;7.65;;;3.03;;
45909;SDS011;31622;55.416;37.840;2023-07-24T05:17:19;9.82;;;4.47;;
45909;SDS011;31622;55.416;37.840;2023-07-24T05:19:44;14.38;;;4.63;;
45909;SDS011;31622;55.416;37.840;2023-07-24T05:22:10;7.28;;;3.85;;
45909;SDS011;31622;55.416;37.840;2023-07-24T05:24:36;10.45;;;3.50;;
45909;SDS011;31622;55.416;37.840;2023-07-24T05:27:03;11.73;;;3.42;;
45909;SDS011;31622;55.416;37.840;2023-07-24T05:29:29;10.60;;;3.05;;
45909;SDS011;31622;55.416;37.840;2023-07-24T05:31:55;11.40;;;3.42;;
45909;SDS011;31622;55.416;37.840;2023-07-24T05:34:20;6.60;;;2.55;;
45909;SDS011;31622;55.416;37.840;2023-07-24T05:36:46;7.40;;;2.60;;
45909;SDS011;31622;55.416;37.840;2023-07-24T05:39:12;6.22;;;2.65;;
45909;SDS011;31622;55.416;37.840;2023-07-24T05:41:37;6.05;;;2.10;;
45909;SDS011;31622;55.416;37.840;2023-07-24T05:44:03;4.22;;;2.03;;
45909;SDS011;31622;55.416;37.840;2023-07-24T05:46:29;6.60;;;1.90;;
45909;SDS011;31622;55.416;37.840;2023-07-24T05:48:55;4.82;;;1.70;;
45909;SDS011;31622;55.416;37.840;2023-07-24T05:51:21;3.75;;;1.60;;
45909;SDS011;31622;55.416;37.840;2023-07-24T05:53:47;6.03;;;2.90;;
45909;SDS011;31622;55.416;37.840;2023-07-24T05:56:13;3.45;;;1.70;;
45909;SDS011;31622;55.416;37.840;2023-07-24T05:58:39;3.65;;;1.73;;
45909;SDS011;31622;55.416;37.840;2023-07-24T06:01:04;2.70;;;1.58;;
45909;SDS011;31622;55.416;37.840;2023-07-24T06:03:33;4.05;;;1.58;;
45909;SDS011;31622;55.416;37.840;2023-07-24T06:05:58;5.35;;;2.10;;
45909;SDS011;31622;55.416;37.840;2023-07-24T06:08:24;4.22;;;1.40;;
45909;SDS011;31622;55.416;37.840;2023-07-24T06:10:50;4.00;;;1.67;;
45909;SDS011;31622;55.416;37.840;2023-07-24T06:13:16;3.00;;;1.25;;
45909;SDS011;31622;55.416;37.840;2023-07-24T06:15:42;3.88;;;1.33;;
45909;SDS011;31622;55.416;37.840;2023-07-24T06:18:08;2.90;;;1.30;;
45909;SDS011;31622;55.416;37.840;2023-07-24T06:20:34;3.75;;;1.38;;
45909;SDS011;31622;55.416;37.840;2023-07-24T06:23:00;3.13;;;1.30;;
45909;SDS011;31622;55.416;37.840;2023-07-24T06:25:26;9.85;;;1.80;;
45909;SDS011;31622;55.416;37.840;2023-07-24T06:27:51;9.90;;;2.28;;
45909;SDS011;31622;55.416;37.840;2023-07-24T06:30:17;7.85;;;1.92;;
45909;SDS011;31622;55.416;37.840;2023-07-24T06:32:43;6.30;;;1.67;;
45909;SDS011;31622;55.416;37.840;2023-07-24T06:35:08;4.68;;;1.83;;
45909;SDS011;31622;55.416;37.840;2023-07-24T06:37:34;4.35;;;1.30;;
45909;SDS011;31622;55.416;37.840;2023-07-24T06:40:00;5.88;;;1.85;;
45909;SDS011;31622;55.416;37.840;2023-07-24T06:42:26;3.97;;;1.20;;
45909;SDS011;31622;55.416;37.840;2023-07-24T06:44:51;4.28;;;1.20;;
45909;SDS011;31622;55.416;37.840;2023-07-24T06:47:17;3.40;;;1.48;;
45909;SDS011;31622;55.416;37.840;2023-07-24T06:49:43;3.05;;;1.10;;
45909;SDS011;31622;55.416;37.840;2023-07-24T06:52:08;3.00;;;1.30;;
45909;SDS011;31622;55.416;37.840;2023-07-24T06:54:34;5.18;;;1.95;;
45909;SDS011;31622;55.416;37.840;2023-07-24T06:57:00;3.70;;;1.35;;
45909;SDS011;31622;55.416;37.840;2023-07-24T06:59:26;6.93;;;1.70;;
45909;SDS011;31622;55.416;37.840;2023-07-24T07:01:51;2.05;;;1.10;;
45909;SDS011;31622;55.416;37.840;2023-07-24T07:04:17;3.08;;;1.50;;
45909;SDS011;31622;55.416;37.840;2023-07-24T07:06:43;2.58;;;1.38;;
45909;SDS011;31622;55.416;37.840;2023-07-24T07:09:08;2.92;;;1.25;;
45909;SDS011;31622;55.416;37.840;2023-07-24T07:11:35;4.88;;;1.15;;
45909;SDS011;31622;55.416;37.840;2023-07-24T07:14:00;6.57;;;1.50;;
45909;SDS011;31622;55.416;37.840;2023-07-24T07:16:26;5.28;;;1.60;;
45909;SDS011;31622;55.416;37.840;2023-07-24T07:18:52;5.95;;;1.50;;
45909;SDS011;31622;55.416;37.840;2023-07-24T07:21:17;3.65;;;1.00;;
45909;SDS011;31622;55.416;37.840;2023-07-24T07:23:43;2.60;;;1.17;;
45909;SDS011;31622;55.416;37.840;2023-07-24T07:26:09;2.00;;;1.10;;
45909;SDS011;31622;55.416;37.840;2023-07-24T07:28:34;2.83;;;1.48;;
45909;SDS011;31622;55.416;37.840;2023-07-24T07:31:00;3.97;;;1.20;;
45909;SDS011;31622;55.416;37.840;2023-07-24T07:33:26;3.88;;;1.42;;
45909;SDS011;31622;55.416;37.840;2023-07-24T07:35:51;2.00;;;1.27;;
45909;SDS011;31622;55.416;37.840;2023-07-24T07:38:17;4.70;;;1.50;;
45909;SDS011;31622;55.416;37.840;2023-07-24T07:40:43;4.97;;;1.40;;
45909;SDS011;31622;55.416;37.840;2023-07-24T07:43:08;6.53;;;1.70;;
45909;SDS011;31622;55.416;37.840;2023-07-24T07:45:34;45.55;;;12.13;;
45909;SDS011;31622;55.416;37.840;2023-07-24T07:48:00;110.40;;;28.08;;
45909;SDS011;31622;55.416;37.840;2023-07-24T07:50:25;50.33;;;13.38;;
45909;SDS011;31622;55.416;37.840;2023-07-24T07:52:51;66.07;;;18.95;;
45909;SDS011;31622;55.416;37.840;2023-07-24T07:55:18;47.28;;;13.65;;
45909;SDS011;31622;55.416;37.840;2023-07-24T07:57:44;39.70;;;13.98;;
45909;SDS011;31622;55.416;37.840;2023-07-24T08:00:10;41.60;;;11.82;;
45909;SDS011;31622;55.416;37.840;2023-07-24T08:02:37;26.92;;;9.20;;
45909;SDS011;31622;55.416;37.840;2023-07-24T08:05:09;30.58;;;8.85;;
45909;SDS011;31622;55.416;37.840;2023-07-24T08:07:36;21.05;;;7.35;;
45909;SDS011;31622;55.416;37.840;2023-07-24T08:10:02;18.55;;;6.68;;
45909;SDS011;31622;55.416;37.840;2023-07-24T08:12:28;22.95;;;8.02;;
45909;SDS011;31622;55.416;37.840;2023-07-24T08:14:54;24.35;;;8.70;;
45909;SDS011;31622;55.416;37.840;2023-07-24T08:17:20;17.63;;;5.80;;
45909;SDS011;31622;55.416;37.840;2023-07-24T08:19:46;16.58;;;6.50;;
45909;SDS011;31622;55.416;37.840;2023-07-24T08:22:11;14.75;;;4.57;;
45909;SDS011;31622;55.416;37.840;2023-07-24T08:24:37;16.00;;;4.82;;
45909;SDS011;31622;55.416;37.840;2023-07-24T08:27:03;17.35;;;4.68;;
45909;SDS011;31622;55.416;37.840;2023-07-24T08:29:29;11.40;;;4.35;;
45909;SDS011;31622;55.416;37.840;2023-07-24T08:31:54;12.70;;;3.92;;
45909;SDS011;31622;55.416;37.840;2023-07-24T08:34:20;12.75;;;3.75;;
45909;SDS011;31622;55.416;37.840;2023-07-24T08:36:46;8.88;;;3.58;;
45909;SDS011;31622;55.416;37.840;2023-07-24T08:39:11;10.57;;;3.83;;
45909;SDS011;31622;55.416;37.840;2023-07-24T08:41:37;8.68;;;3.00;;
45909;SDS011;31622;55.416;37.840;2023-07-24T08:44:12;6.13;;;2.60;;
45909;SDS011;31622;55.416;37.840;2023-07-24T08:46:38;9.00;;;2.97;;
45909;SDS011;31622;55.416;37.840;2023-07-24T08:49:06;14.57;;;3.83;;
45909;SDS011;31622;55.416;37.840;2023-07-24T08:51:41;6.68;;;2.25;;
45909;SDS011;31622;55.416;37.840;2023-07-24T08:54:07;11.57;;;2.90;;
45909;SDS011;31622;55.416;37.840;2023-07-24T08:56:34;6.68;;;2.45;;
45909;SDS011;31622;55.416;37.840;2023-07-24T08:59:01;7.72;;;2.88;;
45909;SDS011;31622;55.416;37.840;2023-07-24T09:01:27;24.88;;;3.60;;
45909;SDS011;31622;55.416;37.840;2023-07-24T09:03:53;6.97;;;2.00;;
45909;SDS011;31622;55.416;37.840;2023-07-24T09:06:18;6.32;;;2.10;;
45909;SDS011;31622;55.416;37.840;2023-07-24T09:08:44;5.47;;;2.10;;
45909;SDS011;31622;55.416;37.840;2023-07-24T09:11:10;3.90;;;1.90;;
45909;SDS011;31622;55.416;37.840;2023-07-24T09:13:41;5.60;;;2.40;;
45909;SDS011;31622;55.416;37.840;2023-07-24T09:16:08;5.95;;;3.03;;
45909;SDS011;31622;55.416;37.840;2023-07-24T09:18:41;6.53;;;2.35;;
45909;SDS011;31622;55.416;37.840;2023-07-24T09:21:10;11.95;;;3.25;;
45909;SDS011;31622;55.416;37.840;2023-07-24T09:23:38;3.90;;;2.08;;
45909;SDS011;31622;55.416;37.840;2023-07-24T09:26:08;4.72;;;2.30;;
45909;SDS011;31622;55.416;37.840;2023-07-24T09:28:34;4.22;;;2.08;;
45909;SDS011;31622;55.416;37.840;2023-07-24T09:31:01;7.70;;;2.33;;
45909;SDS011;31622;55.416;37.840;2023-07-24T09:33:34;5.85;;;2.20;;
45909;SDS011;31622;55.416;37.840;2023-07-24T09:36:04;4.40;;;2.35;;
45909;SDS011;31622;55.416;37.840;2023-07-24T09:38:32;4.28;;;2.33;;
45909;SDS011;31622;55.416;37.840;2023-07-24T09:40:58;4.28;;;2.20;;
45909;SDS011;31622;55.416;37.840;2023-07-24T09:43:26;3.50;;;2.13;;
45909;SDS011;31622;55.416;37.840;2023-07-24T09:45:53;3.60;;;2.00;;
45909;SDS011;31622;55.416;37.840;2023-07-24T09:48:20;5.75;;;2.10;;
45909;SDS011;31622;55.416;37.840;2023-07-24T09:50:47;4.07;;;2.35;;
45909;SDS011;31622;55.416;37.840;2023-07-24T09:53:21;3.70;;;1.80;;
45909;SDS011;31622;55.416;37.840;2023-07-24T09:58:24;3.60;;;2.25;;
45909;SDS011;31622;55.416;37.840;2023-07-24T10:00:51;5.22;;;2.15;;
45909;SDS011;31622;55.416;37.840;2023-07-24T10:03:17;4.00;;;2.30;;
45909;SDS011;31622;55.416;37.840;2023-07-24T10:05:46;4.32;;;2.20;;
45909;SDS011;31622;55.416;37.840;2023-07-24T10:08:16;2.85;;;1.95;;
45909;SDS011;31622;55.416;37.840;2023-07-24T10:10:45;3.20;;;2.08;;
45909;SDS011;31622;55.416;37.840;2023-07-24T10:13:11;3.95;;;2.47;;
45909;SDS011;31622;55.416;37.840;2023-07-24T10:15:43;4.32;;;2.20;;
45909;SDS011;31622;55.416;37.840;2023-07-24T10:18:09;5.40;;;2.25;;
45909;SDS011;31622;55.416;37.840;2023-07-24T10:20:36;3.65;;;2.20;;
45909;SDS011;31622;55.416;37.840;2023-07-24T10:23:06;4.13;;;2.00;;
45909;SDS011;31622;55.416;37.840;2023-07-24T10:25:33;3.05;;;2.17;;
45909;SDS011;31622;55.416;37.840;2023-07-24T10:28:10;3.97;;;2.10;;
45909;SDS011;31622;55.416;37.840;2023-07-24T10:30:37;3.58;;;2.10;;
45909;SDS011;31622;55.416;37.840;2023-07-24T10:33:05;5.05;;;2.10;;
45909;SDS011;31622;55.416;37.840;2023-07-24T10:35:37;8.65;;;5.03;;
45909;SDS011;31622;55.416;37.840;2023-07-24T10:38:04;27.92;;;20.40;;
45909;SDS011;31622;55.416;37.840;2023-07-24T10:40:29;32.53;;;22.00;;
45909;SDS011;31622;55.416;37.840;2023-07-24T10:43:17;29.65;;;21.77;;
45909;SDS011;31622;55.416;37.840;2023-07-24T10:45:50;20.13;;;13.63;;
45909;SDS011;31622;55.416;37.840;2023-07-24T10:48:19;19.83;;;14.32;;
45909;SDS011;31622;55.416;37.840;2023-07-24T10:50:50;20.40;;;13.88;;
45909;SDS011;31622;55.416;37.840;2023-07-24T10:53:17;16.83;;;13.60;;
45909;SDS011;31622;55.416;37.840;2023-07-24T10:55:45;15.63;;;10.35;;
45909;SDS011;31622;55.416;37.840;2023-07-24T10:58:12;29.55;;;10.15;;
45909;SDS011;31622;55.416;37.840;2023-07-24T11:00:42;16.88;;;8.57;;
45909;SDS011;31622;55.416;37.840;2023-07-24T11:03:12;12.43;;;7.55;;
45909;SDS011;31622;55.416;37.840;2023-07-24T11:05:39;9.65;;;6.55;;
45909;SDS011;31622;55.416;37.840;2023-07-24T11:08:10;11.60;;;6.10;;
45909;SDS011;31622;55.416;37.840;2023-07-24T11:10:44;7.15;;;5.35;;
45909;SDS011;31622;55.416;37.840;2023-07-24T11:13:11;9.90;;;5.65;;
45909;SDS011;31622;55.416;37.840;2023-07-24T11:15:37;6.35;;;4.97;;
45909;SDS011;31622;55.416;37.840;2023-07-24T11:18:03;7.68;;;4.70;;
45909;SDS011;31622;55.416;37.840;2023-07-24T11:20:33;6.75;;;4.75;;
45909;SDS011;31622;55.416;37.840;2023-07-24T11:23:02;5.95;;;4.57;;
45909;SDS011;31622;55.416;37.840;2023-07-24T11:25:28;6.05;;;4.75;;
45909;SDS011;31622;55.416;37.840;2023-07-24T11:27:54;5.43;;;3.75;;
45909;SDS011;31622;55.416;37.840;2023-07-24T11:30:20;5.95;;;3.95;;
45909;SDS011;31622;55.416;37.840;2023-07-24T11:32:47;6.18;;;4.30;;
45909;SDS011;31622;55.416;37.840;2023-07-24T11:35:13;8.45;;;4.93;;
45909;SDS011;31622;55.416;37.840;2023-07-24T11:37:39;5.68;;;4.30;;
45909;SDS011;31622;55.416;37.840;2023-07-24T11:40:05;7.70;;;4.32;;
45909;SDS011;31622;55.416;37.840;2023-07-24T11:42:40;4.88;;;4.00;;
45909;SDS011;31622;55.416;37.840;2023-07-24T11:45:08;7.55;;;4.90;;
45909;SDS011;31622;55.416;37.840;2023-07-24T11:47:41;6.20;;;5.07;;
45909;SDS011;31622;55.416;37.840;2023-07-24T11:50:11;7.65;;;5.50;;
45909;SDS011;31622;55.416;37.840;2023-07-24T11:52:40;7.43;;;5.65;;
45909;SDS011;31622;55.416;37.840;2023-07-24T11:55:13;7.75;;;5.15;;
45909;SDS011;31622;55.416;37.840;2023-07-24T11:57:56;7.75;;;5.80;;
45909;SDS011;31622;55.416;37.840;2023-07-24T12:00:23;9.73;;;6.70;;
45909;SDS011;31622;55.416;37.840;2023-07-24T12:02:49;17.45;;;12.50;;
45909;SDS011;31622;55.416;37.840;2023-07-24T12:05:15;17.25;;;12.65;;
45909;SDS011;31622;55.416;37.840;2023-07-24T12:07:42;16.33;;;11.40;;
45909;SDS011;31622;55.416;37.840;2023-07-24T12:10:10;11.50;;;8.63;;
45909;SDS011;31622;55.416;37.840;2023-07-24T12:12:45;12.40;;;8.30;;
45909;SDS011;31622;55.416;37.840;2023-07-24T12:15:12;12.45;;;8.00;;
45909;SDS011;31622;55.416;37.840;2023-07-24T12:17:39;9.18;;;6.78;;
45909;SDS011;31622;55.416;37.840;2023-07-24T12:20:05;11.73;;;7.45;;
45909;SDS011;31622;55.416;37.840;2023-07-24T12:22:33;11.02;;;6.82;;
45909;SDS011;31622;55.416;37.840;2023-07-24T12:25:00;7.60;;;5.32;;
45909;SDS011;31622;55.416;37.840;2023-07-24T12:27:26;10.07;;;6.32;;
45909;SDS011;31622;55.416;37.840;2023-07-24T12:29:52;11.02;;;6.10;;
45909;SDS011;31622;55.416;37.840;2023-07-24T12:32:18;10.25;;;5.20;;
45909;SDS011;31622;55.416;37.840;2023-07-24T12:34:45;13.02;;;7.05;;
45909;SDS011;31622;55.416;37.840;2023-07-24T12:37:12;11.98;;;6.68;;
45909;SDS011;31622;55.416;37.840;2023-07-24T12:39:37;10.93;;;6.60;;
45909;SDS011;31622;55.416;37.840;2023-07-24T12:42:04;10.30;;;6.35;;
45909;SDS011;31622;55.416;37.840;2023-07-24T12:44:30;9.85;;;6.28;;
45909;SDS011;31622;55.416;37.840;2023-07-24T12:46:56;11.48;;;6.38;;
45909;SDS011;31622;55.416;37.840;2023-07-24T12:49:21;9.90;;;5.53;;
45909;SDS011;31622;55.416;37.840;2023-07-24T12:51:47;8.10;;;6.05;;
45909;SDS011;31622;55.416;37.840;2023-07-24T12:54:13;9.50;;;5.88;;
45909;SDS011;31622;55.416;37.840;2023-07-24T12:56:39;7.05;;;5.10;;
45909;SDS011;31622;55.416;37.840;2023-07-24T12:59:05;9.25;;;5.88;;
45909;SDS011;31622;55.416;37.840;2023-07-24T13:01:31;8.88;;;6.32;;
45909;SDS011;31622;55.416;37.840;2023-07-24T13:03:57;10.02;;;5.63;;
45909;SDS011;31622;55.416;37.840;2023-07-24T13:06:23;8.88;;;5.22;;
45909;SDS011;31622;55.416;37.840;2023-07-24T13:08:49;7.15;;;5.35;;
45909;SDS011;31622;55.416;37.840;2023-07-24T13:11:15;7.15;;;5.22;;
45909;SDS011;31622;55.416;37.840;2023-07-24T13:13:40;8.20;;;5.07;;
45909;SDS011;31622;55.416;37.840;2023-07-24T13:16:06;8.50;;;5.05;;
45909;SDS011;31622;55.416;37.840;2023-07-24T13:18:32;6.63;;;4.95;;
45909;SDS011;31622;55.416;37.840;2023-07-24T13:20:58;8.50;;;5.32;;
45909;SDS011;31622;55.416;37.840;2023-07-24T13:23:24;6.65;;;4.72;;
45909;SDS011;31622;55.416;37.840;2023-07-24T13:25:51;8.60;;;4.72;;
45909;SDS011;31622;55.416;37.840;2023-07-24T13:28:17;8.57;;;4.65;;
45909;SDS011;31622;55.416;37.840;2023-07-24T13:30:43;7.90;;;4.53;;
45909;SDS011;31622;55.416;37.840;2023-07-24T13:33:09;8.77;;;4.88;;
45909;SDS011;31622;55.416;37.840;2023-07-24T13:35:35;10.18;;;5.20;;
45909;SDS011;31622;55.416;37.840;2023-07-24T13:38:00;8.07;;;5.30;;
45909;SDS011;31622;55.416;37.840;2023-07-24T13:40:26;6.07;;;4.57;;
45909;SDS011;31622;55.416;37.840;2023-07-24T13:42:52;6.47;;;4.57;;
45909;SDS011;31622;55.416;37.840;2023-07-24T13:45:18;5.88;;;4.45;;
45909;SDS011;31622;55.416;37.840;2023-07-24T13:47:44;8.63;;;5.13;;
45909;SDS011;31622;55.416;37.840;2023-07-24T13:50:09;11.13;;;4.80;;
45909;SDS011;31622;55.416;37.840;2023-07-24T13:52:35;8.32;;;4.40;;
45909;SDS011;31622;55.416;37.840;2023-07-24T13:55:01;6.45;;;4.25;;
45909;SDS011;31622;55.416;37.840;2023-07-24T13:57:26;6.68;;;4.38;;
45909;SDS011;31622;55.416;37.840;2023-07-24T13:59:52;7.63;;;4.45;;
45909;SDS011;31622;55.416;37.840;2023-07-24T14:02:18;7.20;;;4.45;;
45909;SDS011;31622;55.416;37.840;2023-07-24T14:04:44;5.10;;;3.60;;
45909;SDS011;31622;55.416;37.840;2023-07-24T14:07:09;5.45;;;4.00;;
45909;SDS011;31622;55.416;37.840;2023-07-24T14:09:38;5.80;;;3.85;;
45909;SDS011;31622;55.416;37.840;2023-07-24T14:12:03;6.15;;;3.83;;
45909;SDS011;31622;55.416;37.840;2023-07-24T14:14:29;6.00;;;3.97;;
45909;SDS011;31622;55.416;37.840;2023-07-24T14:16:55;5.60;;;3.78;;
45909;SDS011;31622;55.416;37.840;2023-07-24T14:19:21;4.50;;;3.28;;
45909;SDS011;31622;55.416;37.840;2023-07-24T14:21:49;6.22;;;3.33;;
45909;SDS011;31622;55.416;37.840;2023-07-24T14:24:15;6.28;;;4.22;;
45909;SDS011;31622;55.416;37.840;2023-07-24T14:26:41;7.10;;;3.65;;
45909;SDS011;31622;55.416;37.840;2023-07-24T14:29:06;4.72;;;3.40;;
45909;SDS011;31622;55.416;37.840;2023-07-24T14:31:32;5.75;;;2.92;;